Time;durP1;ratioP1;P1;durP2;ratioP2;P2;SDS_P1;SDS_P2;PMS_P1;PMS_P2;Temp;Humidity;BMP_temperature;BMP_pressure;BME280_temperature;BME280_humidity;BME280_pressure;Samples;Min_cycle;Max_cycle;Signal;HPM_P1;HPM_P2
2021/12/13 00:02:16;;;;;;;6.38;4.78;;;;;;;8.52;84.30;100534.09;4939631;28;20061;-81
2021/12/13 00:05:16;;;;;;;5.78;4.82;;;;;;;8.50;85.00;100534.13;4952565;28;20034;-81
2021/12/13 00:07:50;;;;;;;5.22;4.50;;;;;;;8.49;84.70;100534.16;4952952;28;20121;-80
2021/12/13 00:10:21;;;;;;;6.03;4.15;;;;;;;8.51;84.46;100545.50;4959087;28;20066;-80
2021/12/13 00:13:12;;;;;;;5.43;4.15;;;;;;;8.51;84.54;100542.88;4941509;28;20035;-80
2021/12/13 00:15:56;;;;;;;7.00;4.45;;;;;;;8.52;84.13;100534.94;4967571;28;20122;-80
2021/12/13 00:18:30;;;;;;;5.85;4.57;;;;;;;8.52;83.79;100548.09;4935513;28;20130;-78
2021/12/13 00:21:12;;;;;;;5.32;3.95;;;;;;;8.54;84.03;100542.78;4950651;28;20259;-80
2021/12/13 00:23:51;;;;;;;5.07;4.28;;;;;;;8.52;84.34;100550.72;4948131;28;20046;-80
2021/12/13 00:26:34;;;;;;;5.60;4.60;;;;;;;8.52;83.79;100542.84;4934177;28;20043;-78
2021/12/13 00:29:18;;;;;;;5.10;3.63;;;;;;;8.52;83.83;100540.22;4939438;28;20051;-79
2021/12/13 00:32:11;;;;;;;6.18;4.35;;;;;;;8.52;84.01;100539.34;4956788;28;20047;-78
2021/12/13 00:34:46;;;;;;;6.57;4.93;;;;;;;8.56;84.13;100538.34;4922551;28;20054;-78
2021/12/13 00:37:40;;;;;;;5.28;4.00;;;;;;;8.68;84.67;100543.25;4944371;28;20516;-64
2021/12/13 00:40:12;;;;;;;5.57;4.38;;;;;;;8.78;83.95;100542.06;4963059;28;20134;-64
2021/12/13 00:42:43;;;;;;;7.20;4.63;;;;;;;8.84;83.10;100535.78;4964830;28;20125;-65
2021/12/13 00:45:11;;;;;;;6.35;5.20;;;;;;;9.00;82.20;100547.53;4946233;28;20522;-65
2021/12/13 00:47:40;;;;;;;6.15;5.00;;;;;;;9.08;81.35;100549.97;4964665;28;20141;-63
2021/12/13 00:50:25;;;;;;;6.07;4.55;;;;;;;9.15;81.57;100551.47;4947244;28;20047;-65
2021/12/13 00:52:53;;;;;;;4.80;4.28;;;;;;;9.10;81.69;100555.16;4964363;28;20035;-66
2021/12/13 00:55:26;;;;;;;6.07;5.10;;;;;;;9.09;81.42;100554.28;4947985;28;20125;-67
2021/12/13 00:58:09;;;;;;;5.88;4.95;;;;;;;9.07;81.32;100561.38;4963662;28;20031;-67
2021/12/13 01:00:49;;;;;;;6.80;5.07;;;;;;;9.05;80.83;100564.94;4947145;28;20038;-67
2021/12/13 01:03:17;;;;;;;5.85;4.07;;;;;;;9.17;81.28;100562.81;4964661;28;20046;-66
2021/12/13 01:05:46;;;;;;;5.72;4.07;;;;;;;9.28;80.57;100561.59;4963246;28;20046;-65
2021/12/13 01:08:14;;;;;;;4.88;4.30;;;;;;;9.44;79.40;100557.59;4964296;28;20043;-66
2021/12/13 01:10:39;;;;;;;5.40;4.28;;;;;;;9.39;79.59;100564.75;4964475;28;20071;-67
2021/12/13 01:13:27;;;;;;;6.55;5.53;;;;;;;9.24;80.06;100564.34;4965156;28;20042;-65
2021/12/13 01:16:09;;;;;;;6.35;4.80;;;;;;;9.13;79.99;100558.56;4963293;28;20407;-66
2021/12/13 01:19:01;;;;;;;5.90;4.45;;;;;;;9.10;80.63;100560.41;4962924;28;20038;-65
2021/12/13 01:21:55;;;;;;;5.82;4.45;;;;;;;9.16;80.64;100562.88;4947717;28;20046;-65
2021/12/13 01:24:53;;;;;;;7.10;5.32;;;;;;;9.09;80.18;100562.19;4963410;28;20039;-65
2021/12/13 01:27:27;;;;;;;6.15;5.10;;;;;;;9.09;80.70;100556.94;4970688;28;20871;-66
2021/12/13 01:29:53;;;;;;;7.90;4.85;;;;;;;9.07;80.48;100560.50;4980778;28;20085;-80
2021/12/13 01:32:19;;;;;;;6.65;4.47;;;;;;;8.94;81.36;100563.50;4992058;28;20030;-80
2021/12/13 01:34:45;;;;;;;10.88;4.20;;;;;;;8.90;80.89;100553.13;4966685;28;20030;-80
2021/12/13 01:37:16;;;;;;;5.38;4.18;;;;;;;8.88;81.37;100554.94;4982501;28;20038;-82
2021/12/13 01:39:48;;;;;;;7.47;3.90;;;;;;;8.85;82.03;100560.28;4979245;28;20070;-81
2021/12/13 01:42:29;;;;;;;5.55;4.85;;;;;;;8.80;81.29;100570.94;4983582;28;20394;-79
2021/12/13 01:44:58;;;;;;;5.35;4.30;;;;;;;8.72;81.81;100565.06;4984713;28;20039;-78
2021/12/13 01:47:45;;;;;;;4.78;3.72;;;;;;;8.71;82.04;100573.84;4981906;28;20057;-80
2021/12/13 01:50:22;;;;;;;5.00;4.20;;;;;;;8.69;82.78;100573.00;4984447;28;20047;-80
2021/12/13 01:52:50;;;;;;;7.00;5.40;;;;;;;8.67;82.37;100578.34;4966069;28;20118;-79
2021/12/13 01:55:25;;;;;;;5.18;3.90;;;;;;;8.65;82.81;100574.03;4988977;28;20520;-79
2021/12/13 01:58:20;;;;;;;5.18;3.47;;;;;;;8.64;82.64;100570.53;4969581;28;20039;-79
2021/12/13 02:03:45;;;;;;;5.28;4.32;;;;;;;8.62;82.62;100580.22;4979028;28;20052;-79
2021/12/13 02:06:22;;;;;;;6.60;3.72;;;;;;;8.60;83.30;100575.00;5005461;28;20050;-79
2021/12/13 02:08:53;;;;;;;5.95;3.97;;;;;;;8.62;82.75;100588.13;4993009;28;20069;-80
2021/12/13 02:11:19;;;;;;;4.57;3.83;;;;;;;8.62;83.05;100588.13;4989570;28;20510;-80
2021/12/13 02:14:03;;;;;;;6.47;4.30;;;;;;;8.64;83.24;100580.16;4983747;28;20458;-81
2021/12/13 02:19:32;;;;;;;5.00;4.15;;;;;;;8.59;83.75;100582.97;4983284;28;20045;-81
2021/12/13 02:22:20;;;;;;;5.13;3.53;;;;;;;8.59;84.23;100577.69;4980098;28;20474;-81
2021/12/13 02:24:48;;;;;;;5.57;4.28;;;;;;;8.58;84.33;100578.59;4980213;28;20034;-81
2021/12/13 02:27:19;;;;;;;5.25;3.88;;;;;;;8.57;84.40;100579.50;4967171;28;20034;-78
2021/12/13 02:29:46;;;;;;;7.20;5.18;;;;;;;8.57;84.81;100579.50;4984333;28;20035;-81
2021/12/13 02:32:11;;;;;;;5.32;4.72;;;;;;;8.57;84.22;100579.50;4962389;28;20046;-80
2021/12/13 02:34:42;;;;;;;6.93;6.22;;;;;;;8.56;84.03;100580.38;4944585;28;20064;-81
2021/12/13 02:37:10;;;;;;;4.38;3.72;;;;;;;8.57;84.51;100582.13;4961534;28;20041;-82
2021/12/13 02:39:41;;;;;;;5.75;3.72;;;;;;;8.58;84.49;100575.97;4962051;28;20043;-82
2021/12/13 02:42:09;;;;;;;5.63;3.65;;;;;;;8.56;84.53;100578.63;4963804;28;20533;-80
2021/12/13 02:44:41;;;;;;;5.57;3.80;;;;;;;8.58;84.26;100581.22;4973358;28;20045;-80
2021/12/13 02:47:21;;;;;;;7.55;3.70;;;;;;;8.59;84.40;100580.31;4993517;28;20031;-80
2021/12/13 02:49:46;;;;;;;4.15;3.50;;;;;;;8.58;84.30;100584.69;4992210;28;20145;-79
2021/12/13 02:52:15;;;;;;;5.18;3.63;;;;;;;8.59;84.44;100586.44;4971243;28;20034;-83
2021/12/13 02:54:48;;;;;;;6.07;3.95;;;;;;;8.57;83.60;100575.09;4986775;28;20031;-80
2021/12/13 02:57:23;;;;;;;5.60;3.75;;;;;;;8.55;84.24;100569.03;4982971;28;20042;-82
2021/12/13 02:59:57;;;;;;;5.00;3.60;;;;;;;8.54;84.13;100571.69;4975739;28;20034;-78
2021/12/13 03:02:22;;;;;;;4.35;3.40;;;;;;;8.52;83.43;100571.75;4976256;28;20038;-79
2021/12/13 03:04:49;;;;;;;4.50;3.20;;;;;;;8.50;84.21;100567.44;4966446;28;20031;-78
2021/12/13 03:07:19;;;;;;;4.70;3.22;;;;;;;8.56;83.78;100577.75;4951351;28;20070;-77
2021/12/13 03:09:49;;;;;;;5.00;3.22;;;;;;;8.58;83.09;100568.94;4985846;28;20042;-78
2021/12/13 03:12:16;;;;;;;5.05;3.05;;;;;;;8.63;82.87;100574.06;4985564;28;20054;-77
2021/12/13 03:14:48;;;;;;;3.90;3.10;;;;;;;8.62;83.45;100572.34;4988177;28;20031;-80
2021/12/13 03:17:20;;;;;;;4.18;3.47;;;;;;;8.62;83.39;100579.38;4978069;28;20030;-80
2021/12/13 03:19:57;;;;;;;4.72;3.05;;;;;;;8.60;82.54;100572.38;4987930;28;20031;-79
2021/12/13 03:22:37;;;;;;;4.18;2.85;;;;;;;8.63;82.54;100579.31;4971154;28;20050;-80
2021/12/13 03:25:15;;;;;;;4.65;3.80;;;;;;;8.64;83.18;100582.78;4985140;28;20046;-80
2021/12/13 03:28:11;;;;;;;5.85;3.95;;;;;;;8.63;82.73;100581.94;4977918;28;20089;-82
2021/12/13 03:30:59;;;;;;;3.47;2.75;;;;;;;8.66;82.89;100594.13;4988713;28;20093;-79
2021/12/13 03:33:31;;;;;;;3.72;2.72;;;;;;;8.66;82.71;100583.63;4988252;28;20042;-81
2021/12/13 03:36:04;;;;;;;3.63;2.83;;;;;;;8.68;82.42;100580.03;4987687;28;20030;-81
2021/12/13 03:38:44;;;;;;;6.72;3.50;;;;;;;8.66;82.04;100587.09;4970931;28;20090;-80
2021/12/13 03:41:19;;;;;;;5.95;3.28;;;;;;;8.64;82.66;100580.16;4971171;28;20034;-80
2021/12/13 03:44:08;;;;;;;3.55;2.70;;;;;;;8.64;82.40;100577.53;4988846;28;20042;-80
2021/12/13 03:46:35;;;;;;;4.80;3.35;;;;;;;8.63;82.05;100581.94;4970334;28;20049;-79
2021/12/13 03:49:03;;;;;;;6.88;2.83;;;;;;;8.60;82.21;100593.41;4970956;28;20038;-79
2021/12/13 03:51:32;;;;;;;3.80;2.80;;;;;;;8.64;82.14;100591.56;4938862;28;20049;-79
2021/12/13 03:53:59;;;;;;;4.07;2.70;;;;;;;8.64;82.24;100594.19;4987888;28;20038;-79
2021/12/13 03:56:29;;;;;;;5.90;2.72;;;;;;;8.69;82.07;100596.66;4963828;28;20046;-78
2021/12/13 03:59:03;;;;;;;4.70;3.17;;;;;;;8.68;82.10;100589.69;4977775;28;20051;-77
2021/12/13 04:01:36;;;;;;;4.82;2.88;;;;;;;8.68;81.51;100598.44;4959124;28;20098;-79
2021/12/13 04:04:10;;;;;;;4.22;2.45;;;;;;;8.68;81.51;100589.69;4959272;29;20042;-77
2021/12/13 04:06:45;;;;;;;8.65;3.70;;;;;;;8.69;81.32;100594.94;4957537;29;20038;-79
2021/12/13 04:09:15;;;;;;;5.13;3.35;;;;;;;8.70;81.38;100588.75;4957377;29;20045;-78
2021/12/13 04:11:44;;;;;;;5.13;3.53;;;;;;;8.71;81.27;100590.50;4941765;29;20038;-77
2021/12/13 04:14:21;;;;;;;3.92;2.80;;;;;;;8.70;81.09;100593.16;4963796;29;20039;-80
2021/12/13 04:17:19;;;;;;;3.88;2.78;;;;;;;8.71;81.45;100597.50;4963219;29;20035;-77
2021/12/13 04:19:56;;;;;;;3.67;2.63;;;;;;;8.70;81.16;100588.75;4963796;29;20035;-80
2021/12/13 04:22:28;;;;;;;5.88;2.65;;;;;;;8.72;80.56;100592.19;4962442;29;20072;-78
2021/12/13 04:25:00;;;;;;;2.80;1.95;;;;;;;8.73;80.77;100604.44;4962933;29;20037;-79
2021/12/13 04:27:57;;;;;;;3.08;2.42;;;;;;;8.74;81.08;100602.69;4948630;29;20038;-79
2021/12/13 04:30:30;;;;;;;3.13;2.25;;;;;;;8.66;80.45;100592.34;4941626;29;20039;-78
2021/12/13 04:33:01;;;;;;;3.65;2.80;;;;;;;8.67;80.73;100591.47;4961353;29;20039;-79
2021/12/13 04:35:28;;;;;;;4.05;2.60;;;;;;;8.65;80.70;100593.28;4955928;29;20038;-79
2021/12/13 04:37:56;;;;;;;4.28;2.60;;;;;;;8.66;80.84;100595.00;4965403;29;20047;-78
2021/12/13 04:40:27;;;;;;;3.88;2.70;;;;;;;8.66;80.33;100602.88;4980706;28;20027;-80
2021/12/13 04:43:02;;;;;;;4.28;2.65;;;;;;;8.68;80.74;100597.59;4984555;28;20375;-78
2021/12/13 04:45:28;;;;;;;3.00;2.58;;;;;;;8.67;80.90;100609.88;4983010;28;20094;-78
2021/12/13 04:48:15;;;;;;;3.95;2.85;;;;;;;8.70;80.44;100599.25;4961942;28;20031;-78
2021/12/13 04:51:02;;;;;;;5.00;2.50;;;;;;;8.70;80.56;100607.16;4950441;28;20128;-79
2021/12/13 04:53:37;;;;;;;5.25;2.78;;;;;;;8.68;81.01;100606.31;4986211;28;20035;-78
2021/12/13 04:56:09;;;;;;;3.85;2.60;;;;;;;8.67;80.72;100602.00;4969377;28;20035;-79
2021/12/13 04:58:35;;;;;;;3.05;2.10;;;;;;;8.65;80.69;100595.06;4989026;28;20042;-79
2021/12/13 05:01:05;;;;;;;3.15;2.40;;;;;;;8.64;81.28;100604.72;4974896;28;20517;-77
2021/12/13 05:03:34;;;;;;;3.55;2.47;;;;;;;8.65;81.13;100611.69;4965092;28;20113;-79
2021/12/13 05:06:06;;;;;;;3.40;2.55;;;;;;;8.65;80.77;100616.94;4981707;28;20518;-80
2021/12/13 05:08:33;;;;;;;5.55;2.63;;;;;;;8.67;80.61;100611.66;4956729;28;20058;-81
2021/12/13 05:11:03;;;;;;;3.35;2.30;;;;;;;8.63;81.08;100607.38;4958377;28;20042;-82
2021/12/13 05:13:29;;;;;;;3.20;2.25;;;;;;;8.62;81.53;100613.53;4960776;28;20042;-79
2021/12/13 05:15:59;;;;;;;3.40;2.47;;;;;;;8.60;80.93;100617.06;4954134;28;20030;-79
2021/12/13 05:18:29;;;;;;;3.30;2.38;;;;;;;8.60;81.18;100621.47;4970237;28;20043;-79
2021/12/13 05:21:08;;;;;;;3.38;2.28;;;;;;;8.61;81.71;100617.91;4953097;28;20039;-78
2021/12/13 05:23:38;;;;;;;4.95;2.40;;;;;;;8.59;81.73;100617.97;4970738;28;20398;-78
2021/12/13 05:26:07;;;;;;;3.50;2.47;;;;;;;8.60;81.79;100611.81;4967418;28;20129;-78
2021/12/13 05:28:49;;;;;;;3.83;2.75;;;;;;;8.59;81.72;100620.59;4951628;28;20035;-78
2021/12/13 05:31:22;;;;;;;2.35;2.15;;;;;;;8.58;81.29;100618.00;4968689;28;20045;-77
2021/12/13 05:33:54;;;;;;;3.67;2.33;;;;;;;8.58;82.05;100615.38;4951071;28;20037;-76
2021/12/13 05:36:27;;;;;;;3.70;2.58;;;;;;;8.57;81.58;100617.16;4967433;28;20054;-76
2021/12/13 05:39:15;;;;;;;3.97;2.70;;;;;;;8.56;81.82;100606.66;4966939;28;20062;-76
2021/12/13 05:41:52;;;;;;;3.30;2.47;;;;;;;8.53;82.22;100612.03;4967754;28;20047;-76
2021/12/13 05:44:32;;;;;;;2.70;2.33;;;;;;;8.52;82.09;100615.56;4966216;28;20035;-76
2021/12/13 05:46:59;;;;;;;4.32;2.97;;;;;;;8.47;82.38;100625.34;4950164;28;20042;-76
2021/12/13 05:49:33;;;;;;;3.92;2.63;;;;;;;8.44;82.54;100628.03;4950205;28;20065;-77
2021/12/13 05:52:11;;;;;;;3.58;2.42;;;;;;;8.43;83.13;100626.31;4967602;28;20039;-76
2021/12/13 05:54:41;;;;;;;4.13;2.60;;;;;;;8.42;83.41;100627.19;4967290;28;20380;-77
2021/12/13 05:57:16;;;;;;;2.70;2.00;;;;;;;8.43;83.45;100629.81;4967917;28;20051;-77
2021/12/13 06:00:02;;;;;;;3.47;2.45;;;;;;;8.41;83.76;100620.22;4970840;28;20069;-75
2021/12/13 06:02:51;;;;;;;3.42;2.50;;;;;;;8.38;83.60;100624.63;4973421;28;20133;-77
2021/12/13 06:05:23;;;;;;;3.15;2.30;;;;;;;8.35;84.04;100627.34;4972681;28;20042;-77
2021/12/13 06:07:55;;;;;;;4.00;3.13;;;;;;;8.33;84.39;100630.91;4974211;28;20038;-79
2021/12/13 06:10:21;;;;;;;3.60;2.70;;;;;;;8.33;84.24;100638.81;4976006;28;20047;-78
2021/12/13 06:12:59;;;;;;;2.50;1.90;;;;;;;8.30;84.80;100631.88;4956885;28;20037;-79
2021/12/13 06:15:27;;;;;;;3.30;2.25;;;;;;;8.28;84.46;100627.56;4972841;28;20131;-77
2021/12/13 06:17:55;;;;;;;2.95;1.77;;;;;;;8.29;84.87;100638.00;4972184;28;20046;-78
2021/12/13 06:20:26;;;;;;;3.10;2.05;;;;;;;8.28;84.65;100636.28;4982244;28;20088;-79
2021/12/13 06:23:03;;;;;;;2.90;2.08;;;;;;;8.27;85.07;100637.19;4954208;28;20091;-80
2021/12/13 06:25:29;;;;;;;3.78;2.25;;;;;;;8.29;84.85;100635.38;4953017;28;20035;-81
2021/12/13 06:27:59;;;;;;;5.25;2.30;;;;;;;8.29;84.80;100632.75;4963699;28;20034;-79
2021/12/13 06:30:38;;;;;;;2.50;1.85;;;;;;;8.31;84.84;100632.72;4975875;28;20042;-80
2021/12/13 06:33:10;;;;;;;4.13;2.70;;;;;;;8.30;84.78;100618.72;4978402;28;20026;-79
2021/12/13 06:35:55;;;;;;;3.88;2.30;;;;;;;8.32;85.08;100629.22;4963278;28;20042;-82
2021/12/13 06:38:59;;;;;;;4.15;2.55;;;;;;;8.31;85.10;100630.09;4984602;28;20083;-81
2021/12/13 06:41:27;;;;;;;3.00;2.20;;;;;;;8.30;85.29;100631.00;4969215;28;20046;-78
2021/12/13 06:43:57;;;;;;;3.40;2.35;;;;;;;8.25;85.37;100631.13;4986168;28;20035;-82
2021/12/13 06:46:23;;;;;;;3.13;2.13;;;;;;;8.25;85.49;100630.28;4980099;28;20035;-82
2021/12/13 06:48:54;;;;;;;4.20;2.70;;;;;;;8.28;85.17;100638.91;4962898;28;20039;-80
2021/12/13 06:51:35;;;;;;;3.75;2.83;;;;;;;8.30;85.14;100646.78;4969095;28;20043;-78
2021/12/13 06:54:09;;;;;;;5.43;3.33;;;;;;;8.32;84.47;100644.97;4970767;28;20026;-79
2021/12/13 06:56:36;;;;;;;3.55;2.92;;;;;;;8.33;85.31;100639.66;4969716;28;20031;-78
2021/12/13 06:59:05;;;;;;;3.10;2.45;;;;;;;8.34;84.50;100638.78;4971210;28;20387;-78
2021/12/13 07:01:34;;;;;;;3.22;2.53;;;;;;;8.34;84.94;100636.16;4972840;28;20039;-77
2021/12/13 07:04:05;;;;;;;3.70;2.55;;;;;;;8.35;83.99;100640.47;4953943;28;20026;-76
2021/12/13 07:06:31;;;;;;;3.40;2.42;;;;;;;8.30;85.22;100638.88;4972695;28;20089;-78
2021/12/13 07:09:08;;;;;;;2.95;2.42;;;;;;;8.28;84.92;100641.53;4973280;28;20027;-80
2021/12/13 07:11:52;;;;;;;3.55;3.20;;;;;;;8.31;84.93;100645.84;4957946;28;20099;-81
2021/12/13 07:14:21;;;;;;;3.92;3.00;;;;;;;8.30;84.93;100642.38;4958061;28;20050;-77
2021/12/13 07:16:52;;;;;;;4.30;2.70;;;;;;;8.29;85.06;100650.28;4976986;28;20047;-81
2021/12/13 07:19:22;;;;;;;3.60;2.85;;;;;;;8.28;85.77;100656.44;4958683;28;20162;-81
2021/12/13 07:21:55;;;;;;;3.42;2.83;;;;;;;8.21;85.49;100655.72;4958185;28;20089;-81
2021/12/13 07:24:40;;;;;;;4.20;2.70;;;;;;;8.21;85.79;100658.38;4959044;28;20031;-81
2021/12/13 07:27:32;;;;;;;3.22;2.47;;;;;;;8.25;85.35;100654.75;4964013;28;20402;-78
2021/12/13 07:30:07;;;;;;;4.25;2.20;;;;;;;8.30;85.91;100652.03;4968949;28;20098;-76
2021/12/13 07:32:39;;;;;;;5.20;3.00;;;;;;;8.26;85.96;100645.97;4968650;28;20034;-79
2021/12/13 07:35:11;;;;;;;5.30;3.42;;;;;;;8.26;85.73;100659.09;4952071;28;20086;-78
2021/12/13 07:37:49;;;;;;;4.25;2.72;;;;;;;8.28;85.77;100651.19;4957212;28;20035;-79
2021/12/13 07:40:36;;;;;;;3.80;2.80;;;;;;;8.29;85.39;100656.38;4952326;28;20514;-77
2021/12/13 07:43:18;;;;;;;3.28;2.55;;;;;;;8.30;85.30;100649.41;4957158;28;20035;-79
2021/12/13 07:46:09;;;;;;;3.50;2.15;;;;;;;8.30;85.36;100650.25;4955732;28;20046;-78
2021/12/13 07:48:51;;;;;;;4.60;2.90;;;;;;;8.30;85.09;100658.13;4957027;28;20034;-78
2021/12/13 07:51:20;;;;;;;4.47;3.53;;;;;;;8.30;84.64;100663.38;4964341;28;20059;-78
2021/12/13 07:53:57;;;;;;;4.07;2.90;;;;;;;8.34;84.45;100667.66;4957043;28;20095;-78
2021/12/13 07:56:40;;;;;;;3.42;2.40;;;;;;;8.36;84.64;100664.97;4958836;28;20043;-81
2021/12/13 07:59:05;;;;;;;3.60;2.53;;;;;;;8.37;85.02;100667.59;4954259;28;20036;-73
2021/12/13 08:01:34;;;;;;;3.58;2.75;;;;;;;8.42;84.58;100678.00;4949993;28;20102;-73
2021/12/13 08:04:17;;;;;;;3.35;2.70;;;;;;;8.41;83.66;100678.03;4954333;28;20073;-72
2021/12/13 08:07:08;;;;;;;4.68;2.80;;;;;;;8.42;83.89;100680.63;4951769;29;20043;-73
2021/12/13 08:09:39;;;;;;;3.40;2.42;;;;;;;8.43;84.50;100686.75;4945497;28;20035;-74
2021/12/13 08:12:26;;;;;;;4.30;3.08;;;;;;;8.42;83.86;100688.53;4951910;28;20039;-73
2021/12/13 08:14:56;;;;;;;3.17;2.53;;;;;;;8.41;83.54;100689.41;4950641;28;20090;-73
2021/12/13 08:17:31;;;;;;;3.90;2.65;;;;;;;8.46;83.33;100698.03;4951174;28;20104;-74
2021/12/13 08:20:09;;;;;;;5.70;3.55;;;;;;;8.50;82.84;100701.47;4950060;28;20510;-72
2021/12/13 08:22:40;;;;;;;3.28;2.05;;;;;;;8.51;82.95;100705.81;4970928;28;20050;-73
2021/12/13 08:25:13;;;;;;;4.03;2.92;;;;;;;8.50;82.58;100704.09;4995343;28;20504;-73
2021/12/13 08:27:42;;;;;;;11.30;3.13;;;;;;;8.52;82.78;100700.50;4985035;28;20042;-72
2021/12/13 08:30:13;;;;;;;5.03;2.88;;;;;;;8.52;82.22;100703.16;4987659;28;20038;-72
2021/12/13 08:32:55;;;;;;;3.38;2.35;;;;;;;8.57;82.15;100711.78;4984571;28;20042;-72
2021/12/13 08:35:20;;;;;;;5.10;2.72;;;;;;;8.60;82.41;100705.56;4983984;28;20153;-74
2021/12/13 08:37:57;;;;;;;3.97;2.60;;;;;;;8.66;81.90;100708.03;4989146;28;20416;-80
2021/12/13 08:40:27;;;;;;;2.30;1.73;;;;;;;8.74;82.10;100708.69;4972927;28;20054;-80
2021/12/13 08:42:57;;;;;;;4.18;2.47;;;;;;;8.80;81.58;100705.88;4995422;28;20603;-80
2021/12/13 08:45:31;;;;;;;4.35;1.90;;;;;;;8.81;80.93;100705.00;4980942;28;20038;-77
2021/12/13 08:48:26;;;;;;;2.10;1.75;;;;;;;8.88;81.00;100704.81;5004013;28;20034;-79
2021/12/13 08:50:55;;;;;;;5.03;2.40;;;;;;;8.89;80.87;100703.94;4988414;28;20038;-80
2021/12/13 08:53:28;;;;;;;3.40;2.28;;;;;;;8.95;80.21;100698.50;4990986;28;20048;-78
2021/12/13 08:56:10;;;;;;;3.55;2.20;;;;;;;9.05;80.33;100697.31;5005769;28;20042;-79
2021/12/13 08:58:48;;;;;;;2.97;2.13;;;;;;;9.15;79.22;100706.66;4989028;28;20034;-77
2021/12/13 09:01:14;;;;;;;2.20;1.80;;;;;;;9.29;79.44;100708.91;4992186;28;20621;-78
2021/12/13 09:03:47;;;;;;;1.88;1.42;;;;;;;9.31;79.06;100708.88;4984849;28;20034;-77
2021/12/13 09:06:18;;;;;;;10.05;3.13;;;;;;;9.32;78.32;100711.44;4985581;28;20042;-77
2021/12/13 09:09:20;;;;;;;3.60;1.70;;;;;;;9.36;78.60;100709.59;5001915;28;20140;-78
2021/12/13 09:11:57;;;;;;;2.53;1.80;;;;;;;9.34;78.91;100717.53;4987613;28;20042;-79
2021/12/13 09:14:41;;;;;;;2.83;2.25;;;;;;;9.37;79.17;100711.31;4989691;28;20376;-78
2021/12/13 09:17:22;;;;;;;3.88;2.33;;;;;;;9.44;78.24;100715.50;4971710;28;20049;-77
2021/12/13 09:19:53;;;;;;;3.03;2.10;;;;;;;9.46;78.52;100719.81;4966955;28;20107;-78
2021/12/13 09:22:38;;;;;;;2.83;2.03;;;;;;;9.42;78.22;100712.03;4993422;28;20042;-81
2021/12/13 09:25:16;;;;;;;3.60;2.03;;;;;;;9.37;78.78;100719.22;4992616;28;20026;-78
2021/12/13 09:27:53;;;;;;;2.40;1.60;;;;;;;9.40;78.25;100722.63;4984708;28;20046;-82
2021/12/13 09:30:49;;;;;;;4.75;1.63;;;;;;;9.45;78.45;100726.00;4967500;28;20053;-82
2021/12/13 09:33:27;;;;;;;3.65;2.03;;;;;;;9.48;78.22;100732.94;4967040;28;20030;-82
2021/12/13 09:36:00;;;;;;;2.72;2.25;;;;;;;9.48;77.68;100738.19;4996925;28;20041;-81
2021/12/13 09:38:36;;;;;;;1.85;1.50;;;;;;;9.44;78.14;100732.16;4993519;28;20107;-83
2021/12/13 09:41:23;;;;;;;3.60;2.20;;;;;;;9.46;78.67;100735.59;4978269;28;20046;-80
2021/12/13 09:44:19;;;;;;;3.28;1.83;;;;;;;9.47;77.56;100731.19;4986498;28;20799;-83
2021/12/13 09:46:49;;;;;;;3.20;2.10;;;;;;;9.45;78.42;100733.88;4925303;28;20117;-80
2021/12/13 09:49:35;;;;;;;2.55;1.88;;;;;;;9.52;77.96;100733.69;4972899;28;20146;-81
2021/12/13 09:52:15;;;;;;;;;;;;;;;9.51;77.54;100738.09;4960708;28;20506;-80
2021/12/13 09:55:13;;;;;;;3.65;1.85;;;;;;;9.54;77.34;100745.03;4962690;28;19921;-80
2021/12/13 09:58:17;;;;;;;3.50;2.10;;;;;;;9.60;77.12;100739.63;4969493;28;20079;-81
2021/12/13 10:00:50;;;;;;;3.90;1.67;;;;;;;9.62;77.00;100735.13;4943975;28;20121;-83
2021/12/13 10:03:29;;;;;;;2.53;1.85;;;;;;;9.70;77.08;100741.06;4986650;28;20038;-81
2021/12/13 10:06:06;;;;;;;6.50;1.75;;;;;;;9.72;76.49;100746.25;4949927;28;20130;-82
2021/12/13 10:09:19;;;;;;;3.30;2.03;;;;;;;9.72;76.80;100735.72;4968548;28;20149;-81
2021/12/13 10:12:01;;;;;;;1.92;1.48;;;;;;;9.78;76.27;100738.19;4967162;28;20138;-84
2021/12/13 10:14:32;;;;;;;2.40;1.58;;;;;;;9.80;76.23;100725.84;4996300;28;20031;-82
2021/12/13 10:16:59;;;;;;;2.33;1.58;;;;;;;9.75;75.78;100722.50;4998798;28;20042;-82
2021/12/13 10:19:38;;;;;;;1.95;1.50;;;;;;;9.74;75.61;100718.97;4996137;28;20033;-83
2021/12/13 10:22:06;;;;;;;2.13;1.33;;;;;;;9.78;75.33;100722.38;4983890;28;20035;-80
2021/12/13 10:24:35;;;;;;;2.38;1.48;;;;;;;9.74;75.60;100715.47;4971634;28;20041;-81
2021/12/13 10:27:05;;;;;;;10.63;1.90;;;;;;;9.79;74.70;100717.06;4965113;28;20077;-82
2021/12/13 10:29:33;;;;;;;2.85;1.75;;;;;;;9.80;75.46;100717.94;5001271;28;20046;-83
2021/12/13 10:32:04;;;;;;;5.10;1.40;;;;;;;9.78;74.81;100711.84;4972075;28;20109;-82
2021/12/13 10:34:46;;;;;;;1.70;1.10;;;;;;;9.72;74.25;100714.66;4965556;28;20158;-81
2021/12/13 10:37:20;;;;;;;1.90;1.27;;;;;;;9.59;74.33;100712.41;4952709;28;20043;-83
2021/12/13 10:39:50;;;;;;;1.10;1.00;;;;;;;9.67;74.20;100701.63;4957207;28;20043;-81
2021/12/13 10:42:32;;;;;;;1.30;1.10;;;;;;;9.70;73.72;100706.81;4960224;28;20094;-83
2021/12/13 10:44:59;;;;;;;1.48;1.20;;;;;;;9.74;73.69;100716.34;4989417;28;20167;-83
2021/12/13 10:47:32;;;;;;;0.88;0.85;;;;;;;9.79;72.75;100711.78;5003330;28;20034;-81
2021/12/13 10:50:00;;;;;;;1.38;1.00;;;;;;;9.85;72.90;100722.13;4975839;28;20041;-82
2021/12/13 10:52:34;;;;;;;1.00;0.90;;;;;;;9.89;72.57;100723.78;4986591;28;20034;-83
2021/12/13 10:55:05;;;;;;;0.95;0.95;;;;;;;9.88;71.93;100722.03;4964025;28;20046;-82
2021/12/13 10:57:38;;;;;;;1.33;1.23;;;;;;;9.87;72.60;100716.84;4972887;28;20045;-82
2021/12/13 11:00:14;;;;;;;1.75;1.00;;;;;;;9.91;71.83;100721.06;4994869;28;20050;-82
2021/12/13 11:02:41;;;;;;;1.17;0.95;;;;;;;9.86;71.58;100726.50;4998190;28;20094;-82
2021/12/13 11:05:16;;;;;;;1.30;1.00;;;;;;;9.86;71.53;100731.75;4948000;28;20388;-80
2021/12/13 11:07:43;;;;;;;1.73;1.30;;;;;;;9.87;71.92;100722.09;5014457;28;20053;-81
2021/12/13 11:10:15;;;;;;;4.78;1.10;;;;;;;9.87;72.06;100720.31;4994415;28;20122;-82
2021/12/13 11:12:47;;;;;;;1.20;1.10;;;;;;;9.83;72.03;100707.31;4982232;28;20030;-82
2021/12/13 11:15:26;;;;;;;1.50;1.10;;;;;;;9.76;72.04;100711.88;4977444;28;20094;-82
2021/12/13 11:17:55;;;;;;;1.20;1.02;;;;;;;9.80;72.62;100710.91;4982450;28;20034;-82
2021/12/13 11:20:29;;;;;;;2.40;1.25;;;;;;;9.75;72.59;100704.06;4962373;28;20057;-81
2021/12/13 11:23:16;;;;;;;1.08;1.00;;;;;;;9.81;72.76;100711.75;4967388;28;20034;-82
2021/12/13 11:26:00;;;;;;;1.85;1.15;;;;;;;9.77;72.32;100700.47;4995226;28;20082;-82
2021/12/13 11:28:29;;;;;;;2.13;1.55;;;;;;;9.80;72.23;100704.78;4981725;28;20053;-80
2021/12/13 11:30:57;;;;;;;3.17;2.03;;;;;;;9.81;71.88;100706.47;4997253;28;20094;-84
2021/12/13 11:33:37;;;;;;;1.52;1.20;;;;;;;9.78;72.27;100698.69;5002206;28;20077;-80
2021/12/13 11:36:31;;;;;;;1.42;1.20;;;;;;;9.77;72.08;100705.72;5011496;28;20065;-81
2021/12/13 11:39:20;;;;;;;1.92;1.33;;;;;;;9.73;71.92;100696.19;4978141;28;20029;-82
2021/12/13 11:42:13;;;;;;;2.55;1.70;;;;;;;9.78;71.76;100693.41;4991409;28;20040;-83
2021/12/13 11:45:12;;;;;;;2.75;1.52;;;;;;;9.79;71.81;100697.75;4986604;28;20041;-81
2021/12/13 11:47:40;;;;;;;1.63;1.30;;;;;;;9.82;71.81;100695.03;4988115;28;20094;-82
2021/12/13 11:50:25;;;;;;;1.40;1.30;;;;;;;9.82;71.13;100708.19;4966272;28;20097;-81
2021/12/13 11:53:18;;;;;;;1.40;1.00;;;;;;;9.78;71.31;100712.72;4971745;28;20039;-82
2021/12/13 11:56:08;;;;;;;1.95;1.52;;;;;;;9.76;70.62;100701.34;4969875;28;20129;-82
2021/12/13 11:59:03;;;;;;;3.38;1.77;;;;;;;9.75;71.08;100698.78;4963482;28;20038;-81
2021/12/13 12:02:03;;;;;;;1.52;1.27;;;;;;;9.79;71.20;100698.63;4980406;28;20073;-82
2021/12/13 12:04:47;;;;;;;1.10;1.00;;;;;;;9.75;70.40;100704.06;4977931;28;20121;-82
2021/12/13 12:07:34;;;;;;;1.42;1.20;;;;;;;9.74;70.46;100704.94;4974084;28;20069;-81
2021/12/13 12:10:14;;;;;;;1.05;0.90;;;;;;;9.73;71.08;100705.88;4957838;28;20057;-80
2021/12/13 12:13:00;;;;;;;1.85;1.17;;;;;;;9.72;70.97;100705.00;4980943;28;20032;-82
2021/12/13 12:15:29;;;;;;;3.38;1.10;;;;;;;9.73;70.99;100692.69;4958393;28;20057;-82
2021/12/13 12:18:00;;;;;;;1.92;1.55;;;;;;;9.71;70.85;100691.88;4976451;28;20118;-82
2021/12/13 12:20:32;;;;;;;1.58;1.20;;;;;;;9.76;70.15;100695.22;4968731;28;20038;-82
2021/12/13 12:23:10;;;;;;;4.22;1.10;;;;;;;9.79;70.26;100690.72;4978899;28;20031;-83